sensor_id;sensor_type;location;lat;lon;timestamp;pressure;altitude;pressure_sealevel;temperature;humidity
16461;BME280;8341;42.048;24.650;2023-06-14T00:00:15;96917.13;;;19.66;100.00
16461;BME280;8341;42.048;24.650;2023-06-14T00:02:42;96915.44;;;19.63;100.00
16461;BME280;8341;42.048;24.650;2023-06-14T00:05:09;96913.44;;;19.63;100.00
16461;BME280;8341;42.048;24.650;2023-06-14T00:07:38;96918.63;;;19.67;100.00
16461;BME280;8341;42.048;24.650;2023-06-14T00:10:08;96918.09;;;19.48;100.00
16461;BME280;8341;42.048;24.650;2023-06-14T00:12:35;96916.38;;;19.45;100.00
16461;BME280;8341;42.048;24.650;2023-06-14T00:15:05;96915.47;;;19.29;100.00
16461;BME280;8341;42.048;24.650;2023-06-14T00:17:32;96912.78;;;19.36;100.00
16461;BME280;8341;42.048;24.650;2023-06-14T00:19:59;96908.09;;;19.45;100.00
16461;BME280;8341;42.048;24.650;2023-06-14T00:22:29;96902.38;;;19.43;100.00
16461;BME280;8341;42.048;24.650;2023-06-14T00:24:56;96906.78;;;19.25;100.00
16461;BME280;8341;42.048;24.650;2023-06-14T00:27:23;96908.03;;;19.37;100.00
16461;BME280;8341;42.048;24.650;2023-06-14T00:29:50;96914.19;;;19.43;100.00
16461;BME280;8341;42.048;24.650;2023-06-14T00:32:18;96908.03;;;19.37;100.00
16461;BME280;8341;42.048;24.650;2023-06-14T00:34:49;96905.69;;;19.41;100.00
16461;BME280;8341;42.048;24.650;2023-06-14T00:37:16;96912.16;;;19.44;100.00
16461;BME280;8341;42.048;24.650;2023-06-14T00:39:43;96902.97;;;19.49;100.00
16461;BME280;8341;42.048;24.650;2023-06-14T00:42:10;96901.88;;;19.52;100.00
16461;BME280;8341;42.048;24.650;2023-06-14T00:44:36;96901.88;;;19.52;100.00
16461;BME280;8341;42.048;24.650;2023-06-14T00:47:04;96895.75;;;19.46;100.00
16461;BME280;8341;42.048;24.650;2023-06-14T00:49:32;96893.00;;;19.46;100.00
16461;BME280;8341;42.048;24.650;2023-06-14T00:51:59;96897.44;;;19.49;100.00
16461;BME280;8341;42.048;24.650;2023-06-14T00:54:27;96897.44;;;19.49;100.00
16461;BME280;8341;42.048;24.650;2023-06-14T00:56:54;96900.00;;;19.47;100.00
16461;BME280;8341;42.048;24.650;2023-06-14T00:59:21;96896.28;;;19.44;100.00
16461;BME280;8341;42.048;24.650;2023-06-14T01:01:48;96903.31;;;19.45;100.00
16461;BME280;8341;42.048;24.650;2023-06-14T01:04:15;96894.25;;;19.45;100.00
16461;BME280;8341;42.048;24.650;2023-06-14T01:06:47;96902.38;;;19.43;100.00
16461;BME280;8341;42.048;24.650;2023-06-14T01:09:21;96892.25;;;19.45;100.00
16461;BME280;8341;42.048;24.650;2023-06-14T01:11:59;96895.00;;;19.45;100.00
16461;BME280;8341;42.048;24.650;2023-06-14T01:14:28;96889.63;;;19.40;100.00
16461;BME280;8341;42.048;24.650;2023-06-14T01:16:56;96890.66;;;19.36;100.00
16461;BME280;8341;42.048;24.650;2023-06-14T01:19:25;96893.22;;;19.34;100.00
16461;BME280;8341;42.048;24.650;2023-06-14T01:21:55;96892.84;;;19.30;100.00
16461;BME280;8341;42.048;24.650;2023-06-14T01:24:23;96889.00;;;19.33;100.00
16461;BME280;8341;42.048;24.650;2023-06-14T01:26:57;96884.47;;;19.23;100.00
16461;BME280;8341;42.048;24.650;2023-06-14T01:29:26;96881.84;;;19.17;100.00
16461;BME280;8341;42.048;24.650;2023-06-14T01:31:58;96882.69;;;19.12;100.00
16461;BME280;8341;42.048;24.650;2023-06-14T01:34:25;96883.09;;;19.16;100.00
16461;BME280;8341;42.048;24.650;2023-06-14T01:36:52;96886.69;;;19.24;100.00
16461;BME280;8341;42.048;24.650;2023-06-14T01:39:21;96889.13;;;19.28;100.00
16461;BME280;8341;42.048;24.650;2023-06-14T01:41:51;96890.94;;;19.25;100.00
16461;BME280;8341;42.048;24.650;2023-06-14T01:44:19;96890.19;;;19.25;100.00
16461;BME280;8341;42.048;24.650;2023-06-14T01:46:47;96897.34;;;19.20;100.00
16461;BME280;8341;42.048;24.650;2023-06-14T01:49:14;96887.34;;;19.17;100.00
16461;BME280;8341;42.048;24.650;2023-06-14T01:51:41;96892.34;;;19.19;100.00
16461;BME280;8341;42.048;24.650;2023-06-14T01:54:08;96884.25;;;19.21;100.00
16461;BME280;8341;42.048;24.650;2023-06-14T01:56:35;96885.75;;;19.22;100.00
16461;BME280;8341;42.048;24.650;2023-06-14T01:59:03;96889.78;;;19.21;100.00
16461;BME280;8341;42.048;24.650;2023-06-14T02:01:30;96887.75;;;19.21;100.00
16461;BME280;8341;42.048;24.650;2023-06-14T02:03:59;96888.69;;;19.24;100.00
16461;BME280;8341;42.048;24.650;2023-06-14T02:06:26;96890.72;;;19.23;100.00
16461;BME280;8341;42.048;24.650;2023-06-14T02:08:53;96886.50;;;19.22;100.00
16461;BME280;8341;42.048;24.650;2023-06-14T02:11:20;96885.75;;;19.22;100.00
16461;BME280;8341;42.048;24.650;2023-06-14T02:13:47;96879.25;;;19.19;100.00
16461;BME280;8341;42.048;24.650;2023-06-14T02:16:15;96875.88;;;19.13;100.00
16461;BME280;8341;42.048;24.650;2023-06-14T02:18:43;96889.69;;;19.13;100.00
16461;BME280;8341;42.048;24.650;2023-06-14T02:21:09;96884.16;;;19.13;100.00
16461;BME280;8341;42.048;24.650;2023-06-14T02:23:36;96886.94;;;19.13;100.00
16461;BME280;8341;42.048;24.650;2023-06-14T02:26:03;96887.41;;;19.04;100.00
16461;BME280;8341;42.048;24.650;2023-06-14T02:28:30;96890.28;;;18.99;100.00
16461;BME280;8341;42.048;24.650;2023-06-14T02:30:56;96886.22;;;18.79;100.00
16461;BME280;8341;42.048;24.650;2023-06-14T02:33:25;96881.03;;;18.36;100.00
16461;BME280;8341;42.048;24.650;2023-06-14T02:35:52;96881.59;;;18.22;100.00
16461;BME280;8341;42.048;24.650;2023-06-14T02:38:19;96887.03;;;18.14;100.00
16461;BME280;8341;42.048;24.650;2023-06-14T02:40:46;96892.22;;;18.18;100.00
16461;BME280;8341;42.048;24.650;2023-06-14T02:43:13;96883.50;;;18.27;100.00
16461;BME280;8341;42.048;24.650;2023-06-14T02:45:40;96888.59;;;18.36;100.00
16461;BME280;8341;42.048;24.650;2023-06-14T02:48:07;96895.41;;;18.35;100.00
16461;BME280;8341;42.048;24.650;2023-06-14T02:50:35;96885.84;;;18.36;100.00
16461;BME280;8341;42.048;24.650;2023-06-14T02:53:02;96900.16;;;18.34;100.00
16461;BME280;8341;42.048;24.650;2023-06-14T02:55:29;96902.81;;;18.13;100.00
16461;BME280;8341;42.048;24.650;2023-06-14T02:57:56;96896.03;;;18.14;100.00
16461;BME280;8341;42.048;24.650;2023-06-14T03:00:23;96904.53;;;18.30;100.00
16461;BME280;8341;42.048;24.650;2023-06-14T03:02:49;96908.03;;;18.30;100.00
16461;BME280;8341;42.048;24.650;2023-06-14T03:05:17;96912.81;;;18.30;100.00
16461;BME280;8341;42.048;24.650;2023-06-14T03:07:48;96909.41;;;18.37;100.00
16461;BME280;8341;42.048;24.650;2023-06-14T03:10:15;96929.38;;;18.43;100.00
16461;BME280;8341;42.048;24.650;2023-06-14T03:12:42;96927.06;;;18.47;100.00
16461;BME280;8341;42.048;24.650;2023-06-14T03:15:10;96936.09;;;18.47;100.00
16461;BME280;8341;42.048;24.650;2023-06-14T03:17:38;96916.84;;;18.42;100.00
16461;BME280;8341;42.048;24.650;2023-06-14T03:20:06;96925.78;;;18.48;100.00
16461;BME280;8341;42.048;24.650;2023-06-14T03:22:33;96934.72;;;18.54;100.00
16461;BME280;8341;42.048;24.650;2023-06-14T03:25:02;96919.41;;;18.53;100.00
16461;BME280;8341;42.048;24.650;2023-06-14T03:27:29;96933.63;;;18.57;100.00
16461;BME280;8341;42.048;24.650;2023-06-14T03:29:56;96940.00;;;18.65;100.00
16461;BME280;8341;42.048;24.650;2023-06-14T03:32:23;96929.59;;;18.58;100.00
16461;BME280;8341;42.048;24.650;2023-06-14T03:34:50;96937.13;;;18.70;100.00
16461;BME280;8341;42.048;24.650;2023-06-14T03:37:18;96941.47;;;18.79;100.00
16461;BME280;8341;42.048;24.650;2023-06-14T03:39:44;96935.75;;;18.77;100.00
16461;BME280;8341;42.048;24.650;2023-06-14T03:42:14;96950.16;;;18.83;100.00
16461;BME280;8341;42.048;24.650;2023-06-14T03:44:41;96942.06;;;18.85;100.00
16461;BME280;8341;42.048;24.650;2023-06-14T03:47:08;96955.69;;;18.83;100.00
16461;BME280;8341;42.048;24.650;2023-06-14T03:49:35;96944.75;;;18.77;100.00
16461;BME280;8341;42.048;24.650;2023-06-14T03:52:03;96955.50;;;18.81;100.00
16461;BME280;8341;42.048;24.650;2023-06-14T03:54:30;96951.88;;;18.86;100.00
16461;BME280;8341;42.048;24.650;2023-06-14T03:56:58;96965.22;;;18.95;100.00
16461;BME280;8341;42.048;24.650;2023-06-14T03:59:26;96960.31;;;19.01;100.00
16461;BME280;8341;42.048;24.650;2023-06-14T04:01:53;96962.22;;;19.06;100.00
16461;BME280;8341;42.048;24.650;2023-06-14T04:04:20;96940.69;;;18.92;100.00
16461;BME280;8341;42.048;24.650;2023-06-14T04:06:55;96974.31;;;19.16;100.00
16461;BME280;8341;42.048;24.650;2023-06-14T04:09:22;96946.78;;;19.11;100.00
16461;BME280;8341;42.048;24.650;2023-06-14T04:11:50;96961.13;;;19.22;100.00
16461;BME280;8341;42.048;24.650;2023-06-14T04:14:18;96963.66;;;19.33;100.00
16461;BME280;8341;42.048;24.650;2023-06-14T04:16:47;96961.31;;;19.38;100.00
16461;BME280;8341;42.048;24.650;2023-06-14T04:19:14;96970.34;;;19.38;100.00
16461;BME280;8341;42.048;24.650;2023-06-14T04:21:41;96938.66;;;19.26;100.00
16461;BME280;8341;42.048;24.650;2023-06-14T04:24:08;96965.84;;;19.48;100.00
16461;BME280;8341;42.048;24.650;2023-06-14T04:26:38;96982.47;;;19.69;100.00
16461;BME280;8341;42.048;24.650;2023-06-14T04:29:05;96974.09;;;19.82;100.00
16461;BME280;8341;42.048;24.650;2023-06-14T04:31:32;96970.44;;;19.87;100.00
16461;BME280;8341;42.048;24.650;2023-06-14T04:34:01;96976.78;;;19.95;100.00
16461;BME280;8341;42.048;24.650;2023-06-14T04:36:31;96970.16;;;19.98;100.00
16461;BME280;8341;42.048;24.650;2023-06-14T04:39:00;96983.09;;;20.03;100.00
16461;BME280;8341;42.048;24.650;2023-06-14T04:41:29;96987.09;;;20.15;100.00
16461;BME280;8341;42.048;24.650;2023-06-14T04:43:56;96972.16;;;20.18;100.00
16461;BME280;8341;42.048;24.650;2023-06-14T04:46:27;96962.66;;;20.06;100.00
16461;BME280;8341;42.048;24.650;2023-06-14T04:48:54;96978.44;;;20.19;100.00
16461;BME280;8341;42.048;24.650;2023-06-14T04:51:23;96986.16;;;20.33;100.00
16461;BME280;8341;42.048;24.650;2023-06-14T04:53:55;96983.72;;;20.30;100.00
16461;BME280;8341;42.048;24.650;2023-06-14T04:56:22;96981.31;;;20.34;100.00
16461;BME280;8341;42.048;24.650;2023-06-14T04:58:50;96991.22;;;20.50;100.00
16461;BME280;8341;42.048;24.650;2023-06-14T05:01:18;96978.50;;;20.54;100.00
16461;BME280;8341;42.048;24.650;2023-06-14T05:03:45;96996.38;;;20.74;100.00
16461;BME280;8341;42.048;24.650;2023-06-14T05:06:14;96996.44;;;20.89;100.00
16461;BME280;8341;42.048;24.650;2023-06-14T05:08:44;96997.97;;;20.98;99.69
16461;BME280;8341;42.048;24.650;2023-06-14T05:11:11;96969.63;;;20.84;99.07
16461;BME280;8341;42.048;24.650;2023-06-14T05:13:37;96994.69;;;21.07;97.28
16461;BME280;8341;42.048;24.650;2023-06-14T05:16:05;96975.22;;;20.99;95.84
16461;BME280;8341;42.048;24.650;2023-06-14T05:18:32;97019.38;;;21.33;96.05
16461;BME280;8341;42.048;24.650;2023-06-14T05:21:00;97010.16;;;21.38;94.85
16461;BME280;8341;42.048;24.650;2023-06-14T05:23:27;97002.75;;;21.33;93.33
16461;BME280;8341;42.048;24.650;2023-06-14T05:25:56;97002.72;;;21.26;93.11
16461;BME280;8341;42.048;24.650;2023-06-14T05:28:23;97039.06;;;21.58;91.73
16461;BME280;8341;42.048;24.650;2023-06-14T05:30:51;97033.53;;;21.65;89.89
16461;BME280;8341;42.048;24.650;2023-06-14T05:33:18;97024.28;;;21.70;89.45
16461;BME280;8341;42.048;24.650;2023-06-14T05:35:45;97035.97;;;21.76;88.85
16461;BME280;8341;42.048;24.650;2023-06-14T05:38:12;97030.22;;;21.74;88.45
16461;BME280;8341;42.048;24.650;2023-06-14T05:40:39;97029.09;;;21.70;88.48
16461;BME280;8341;42.048;24.650;2023-06-14T05:43:07;97043.53;;;21.68;89.00
16461;BME280;8341;42.048;24.650;2023-06-14T05:45:34;97033.91;;;21.69;89.96
16461;BME280;8341;42.048;24.650;2023-06-14T05:48:01;97026.13;;;21.60;90.79
16461;BME280;8341;42.048;24.650;2023-06-14T05:50:28;97042.00;;;21.60;91.13
16461;BME280;8341;42.048;24.650;2023-06-14T05:52:54;97044.63;;;21.65;93.36
16461;BME280;8341;42.048;24.650;2023-06-14T05:55:21;97048.09;;;21.43;93.36
16461;BME280;8341;42.048;24.650;2023-06-14T05:57:48;97053.28;;;21.47;93.72
16461;BME280;8341;42.048;24.650;2023-06-14T06:00:18;97047.94;;;21.56;95.20
16461;BME280;8341;42.048;24.650;2023-06-14T06:02:45;97043.53;;;21.68;92.78
16461;BME280;8341;42.048;24.650;2023-06-14T06:05:13;97042.84;;;21.91;92.21
16461;BME280;8341;42.048;24.650;2023-06-14T06:07:41;97050.66;;;22.00;91.19
16461;BME280;8341;42.048;24.650;2023-06-14T06:10:10;97042.84;;;21.98;88.44
16461;BME280;8341;42.048;24.650;2023-06-14T06:12:36;97059.00;;;22.15;88.73
16461;BME280;8341;42.048;24.650;2023-06-14T06:15:04;97055.84;;;22.41;87.88
16461;BME280;8341;42.048;24.650;2023-06-14T06:17:33;97057.72;;;22.23;88.55
16461;BME280;8341;42.048;24.650;2023-06-14T06:20:00;97052.50;;;22.12;88.42
16461;BME280;8341;42.048;24.650;2023-06-14T06:22:27;97023.63;;;22.00;88.82
16461;BME280;8341;42.048;24.650;2023-06-14T06:24:54;97040.84;;;22.21;87.79
16461;BME280;8341;42.048;24.650;2023-06-14T06:27:21;97049.38;;;22.38;88.47
16461;BME280;8341;42.048;24.650;2023-06-14T06:29:48;97054.56;;;22.65;88.08
16461;BME280;8341;42.048;24.650;2023-06-14T06:32:15;97044.72;;;22.56;88.19
16461;BME280;8341;42.048;24.650;2023-06-14T06:34:43;97044.91;;;22.43;88.04
16461;BME280;8341;42.048;24.650;2023-06-14T06:37:10;97057.34;;;22.65;88.15
16461;BME280;8341;42.048;24.650;2023-06-14T06:39:37;97044.56;;;22.47;86.06
16461;BME280;8341;42.048;24.650;2023-06-14T06:42:04;97074.00;;;22.87;86.65
16461;BME280;8341;42.048;24.650;2023-06-14T06:44:32;97062.91;;;22.72;87.70
16461;BME280;8341;42.048;24.650;2023-06-14T06:46:59;97057.69;;;22.61;84.38
16461;BME280;8341;42.048;24.650;2023-06-14T06:49:26;97069.88;;;23.03;85.10
16461;BME280;8341;42.048;24.650;2023-06-14T06:52:04;97054.66;;;23.04;85.55
16461;BME280;8341;42.048;24.650;2023-06-14T06:54:32;97058.03;;;22.95;82.78
16461;BME280;8341;42.048;24.650;2023-06-14T06:56:59;97057.66;;;22.91;82.52
16461;BME280;8341;42.048;24.650;2023-06-14T06:59:27;97069.84;;;23.19;81.89
16461;BME280;8341;42.048;24.650;2023-06-14T07:01:54;97033.50;;;23.09;81.04
16461;BME280;8341;42.048;24.650;2023-06-14T07:04:21;97072.69;;;23.51;81.09
16461;BME280;8341;42.048;24.650;2023-06-14T07:06:47;97083.84;;;23.83;80.40
16461;BME280;8341;42.048;24.650;2023-06-14T07:09:16;97073.66;;;23.78;79.06
16461;BME280;8341;42.048;24.650;2023-06-14T07:11:46;97078.06;;;23.56;81.15
16461;BME280;8341;42.048;24.650;2023-06-14T07:14:13;97078.31;;;23.43;81.77
16461;BME280;8341;42.048;24.650;2023-06-14T07:16:40;97073.91;;;23.18;81.74
16461;BME280;8341;42.048;24.650;2023-06-14T07:19:08;97079.81;;;23.29;82.38
16461;BME280;8341;42.048;24.650;2023-06-14T07:21:35;97045.13;;;23.38;80.94
16461;BME280;8341;42.048;24.650;2023-06-14T07:24:04;97058.47;;;23.39;81.82
16461;BME280;8341;42.048;24.650;2023-06-14T07:26:33;97067.00;;;23.34;81.55
16461;BME280;8341;42.048;24.650;2023-06-14T07:29:00;97066.09;;;23.39;82.38
16461;BME280;8341;42.048;24.650;2023-06-14T07:31:27;97043.41;;;23.35;81.82
16461;BME280;8341;42.048;24.650;2023-06-14T07:33:54;97073.94;;;23.65;80.98
16461;BME280;8341;42.048;24.650;2023-06-14T07:36:21;97072.03;;;23.28;78.44
16461;BME280;8341;42.048;24.650;2023-06-14T07:38:48;97064.94;;;23.49;79.55
16461;BME280;8341;42.048;24.650;2023-06-14T07:41:16;97071.16;;;23.65;80.53
16461;BME280;8341;42.048;24.650;2023-06-14T07:43:44;97053.69;;;23.72;78.78
16461;BME280;8341;42.048;24.650;2023-06-14T07:46:11;97058.28;;;24.09;78.91
16461;BME280;8341;42.048;24.650;2023-06-14T07:48:37;97054.34;;;24.37;76.85
16461;BME280;8341;42.048;24.650;2023-06-14T07:51:04;97069.31;;;24.49;76.08
16461;BME280;8341;42.048;24.650;2023-06-14T07:53:31;97069.31;;;24.24;75.12
16461;BME280;8341;42.048;24.650;2023-06-14T07:55:58;97065.44;;;24.45;75.47
16461;BME280;8341;42.048;24.650;2023-06-14T07:58:25;97072.78;;;24.82;73.45
16461;BME280;8341;42.048;24.650;2023-06-14T08:00:53;97074.03;;;24.64;72.65
16461;BME280;8341;42.048;24.650;2023-06-14T08:03:20;97058.72;;;24.48;70.66
16461;BME280;8341;42.048;24.650;2023-06-14T08:05:48;97080.47;;;24.91;69.68
16461;BME280;8341;42.048;24.650;2023-06-14T08:08:15;97064.66;;;24.52;71.46
16461;BME280;8341;42.048;24.650;2023-06-14T08:10:42;97039.34;;;24.57;71.92
16461;BME280;8341;42.048;24.650;2023-06-14T08:13:09;97046.97;;;24.74;69.59
16461;BME280;8341;42.048;24.650;2023-06-14T08:15:35;97080.97;;;24.80;70.71
16461;BME280;8341;42.048;24.650;2023-06-14T08:18:05;97082.06;;;24.60;70.20
16461;BME280;8341;42.048;24.650;2023-06-14T08:20:32;97086.63;;;24.89;72.56
16461;BME280;8341;42.048;24.650;2023-06-14T08:23:01;97085.81;;;24.55;72.33
16461;BME280;8341;42.048;24.650;2023-06-14T08:25:29;97086.41;;;24.70;71.86
16461;BME280;8341;42.048;24.650;2023-06-14T08:27:56;97093.25;;;24.77;71.54
16461;BME280;8341;42.048;24.650;2023-06-14T08:30:23;97090.72;;;24.47;71.87
16461;BME280;8341;42.048;24.650;2023-06-14T08:32:50;97103.69;;;24.52;72.54
16461;BME280;8341;42.048;24.650;2023-06-14T08:35:18;97090.31;;;24.25;74.66
16461;BME280;8341;42.048;24.650;2023-06-14T08:37:45;97107.25;;;23.88;75.21
16461;BME280;8341;42.048;24.650;2023-06-14T08:40:19;97107.25;;;24.20;74.71
16461;BME280;8341;42.048;24.650;2023-06-14T08:42:50;97110.69;;;24.03;74.41
16461;BME280;8341;42.048;24.650;2023-06-14T08:45:18;97106.00;;;24.38;75.04
16461;BME280;8341;42.048;24.650;2023-06-14T08:47:45;97098.63;;;24.82;74.69
16461;BME280;8341;42.048;24.650;2023-06-14T08:50:11;97106.09;;;25.14;72.08
16461;BME280;8341;42.048;24.650;2023-06-14T08:52:45;97109.47;;;24.96;70.29
16461;BME280;8341;42.048;24.650;2023-06-14T08:55:16;97103.16;;;24.95;73.08
16461;BME280;8341;42.048;24.650;2023-06-14T08:57:46;97115.28;;;24.90;71.95
16461;BME280;8341;42.048;24.650;2023-06-14T09:00:15;97112.78;;;23.95;75.24
16461;BME280;8341;42.048;24.650;2023-06-14T09:02:42;97104.84;;;24.16;75.57
16461;BME280;8341;42.048;24.650;2023-06-14T09:05:10;97110.25;;;23.82;78.26
16461;BME280;8341;42.048;24.650;2023-06-14T09:07:39;97082.38;;;23.82;79.97
16461;BME280;8341;42.048;24.650;2023-06-14T09:10:11;97104.59;;;24.29;76.66
16461;BME280;8341;42.048;24.650;2023-06-14T09:12:38;97111.38;;;24.44;76.28
16461;BME280;8341;42.048;24.650;2023-06-14T09:15:07;97106.25;;;24.57;75.52
16461;BME280;8341;42.048;24.650;2023-06-14T09:17:34;97099.25;;;24.49;75.48
16461;BME280;8341;42.048;24.650;2023-06-14T09:20:02;97107.50;;;24.07;75.87
16461;BME280;8341;42.048;24.650;2023-06-14T09:22:35;97096.00;;;24.03;75.37
16461;BME280;8341;42.048;24.650;2023-06-14T09:25:02;97101.75;;;24.05;76.60
16461;BME280;8341;42.048;24.650;2023-06-14T09:27:30;97099.47;;;24.18;78.46
16461;BME280;8341;42.048;24.650;2023-06-14T09:29:57;97103.56;;;24.17;78.10
16461;BME280;8341;42.048;24.650;2023-06-14T09:32:25;97098.06;;;24.02;78.05
16461;BME280;8341;42.048;24.650;2023-06-14T09:34:51;97101.16;;;24.14;78.07
16461;BME280;8341;42.048;24.650;2023-06-14T09:37:28;97093.94;;;24.11;78.66
16461;BME280;8341;42.048;24.650;2023-06-14T09:39:56;97091.00;;;24.34;79.65
16461;BME280;8341;42.048;24.650;2023-06-14T09:42:23;97096.00;;;24.60;76.61
16461;BME280;8341;42.048;24.650;2023-06-14T09:44:53;97098.44;;;24.56;75.34
16461;BME280;8341;42.048;24.650;2023-06-14T09:47:21;97105.81;;;24.11;73.77
16461;BME280;8341;42.048;24.650;2023-06-14T09:49:48;97111.13;;;24.24;73.75
16461;BME280;8341;42.048;24.650;2023-06-14T09:52:17;97102.56;;;24.55;74.60
16461;BME280;8341;42.048;24.650;2023-06-14T09:54:46;97097.63;;;24.63;76.39
16461;BME280;8341;42.048;24.650;2023-06-14T09:57:14;97105.03;;;24.18;76.47
16461;BME280;8341;42.048;24.650;2023-06-14T09:59:43;97101.50;;;24.43;78.02
16461;BME280;8341;42.048;24.650;2023-06-14T10:02:18;97098.38;;;24.63;75.60
16461;BME280;8341;42.048;24.650;2023-06-14T10:04:52;97088.72;;;24.64;75.80
16461;BME280;8341;42.048;24.650;2023-06-14T10:07:20;97090.47;;;24.77;75.00
16461;BME280;8341;42.048;24.650;2023-06-14T10:09:49;97080.16;;;24.87;74.14
16461;BME280;8341;42.048;24.650;2023-06-14T10:12:17;97088.44;;;24.95;72.69
16461;BME280;8341;42.048;24.650;2023-06-14T10:14:48;97088.47;;;25.29;71.53
16461;BME280;8341;42.048;24.650;2023-06-14T10:17:24;97084.97;;;25.72;71.62
16461;BME280;8341;42.048;24.650;2023-06-14T10:19:56;97093.31;;;25.89;70.00
16461;BME280;8341;42.048;24.650;2023-06-14T10:22:30;97082.50;;;26.03;69.40
16461;BME280;8341;42.048;24.650;2023-06-14T10:24:59;97082.25;;;25.82;70.58
16461;BME280;8341;42.048;24.650;2023-06-14T10:27:26;97079.09;;;25.95;69.85
16461;BME280;8341;42.048;24.650;2023-06-14T10:30:04;97080.88;;;26.00;68.19
16461;BME280;8341;42.048;24.650;2023-06-14T10:32:33;97081.03;;;26.02;67.42
16461;BME280;8341;42.048;24.650;2023-06-14T10:35:01;97078.88;;;26.10;65.26
16461;BME280;8341;42.048;24.650;2023-06-14T10:37:30;97068.44;;;26.10;67.39
16461;BME280;8341;42.048;24.650;2023-06-14T10:39:57;97081.34;;;26.33;68.33
16461;BME280;8341;42.048;24.650;2023-06-14T10:42:28;97080.06;;;26.43;65.61
16461;BME280;8341;42.048;24.650;2023-06-14T10:44:58;97072.47;;;26.63;65.55
16461;BME280;8341;42.048;24.650;2023-06-14T10:47:29;97075.94;;;26.90;65.17
16461;BME280;8341;42.048;24.650;2023-06-14T10:50:04;97065.50;;;27.19;63.67
16461;BME280;8341;42.048;24.650;2023-06-14T10:52:34;97066.41;;;27.41;61.73
16461;BME280;8341;42.048;24.650;2023-06-14T10:55:06;97064.59;;;27.36;59.37
16461;BME280;8341;42.048;24.650;2023-06-14T10:57:35;97059.03;;;27.26;58.61
16461;BME280;8341;42.048;24.650;2023-06-14T11:00:03;97056.22;;;27.17;59.22
16461;BME280;8341;42.048;24.650;2023-06-14T11:05:48;97047.78;;;26.79;59.90
16461;BME280;8341;42.048;24.650;2023-06-14T11:08:51;97045.22;;;26.63;60.94
16461;BME280;8341;42.048;24.650;2023-06-14T11:11:25;97044.47;;;26.53;62.34
16461;BME280;8341;42.048;24.650;2023-06-14T11:13:56;97046.66;;;26.45;62.50
16461;BME280;8341;42.048;24.650;2023-06-14T11:16:26;97039.31;;;26.50;63.21
16461;BME280;8341;42.048;24.650;2023-06-14T11:18:54;97044.19;;;26.59;62.85
16461;BME280;8341;42.048;24.650;2023-06-14T11:21:24;97030.53;;;26.63;62.32
16461;BME280;8341;42.048;24.650;2023-06-14T11:23:56;97031.69;;;26.69;62.12
16461;BME280;8341;42.048;24.650;2023-06-14T11:26:27;97024.94;;;26.72;62.56
16461;BME280;8341;42.048;24.650;2023-06-14T11:28:58;97021.53;;;26.64;60.24
16461;BME280;8341;42.048;24.650;2023-06-14T11:31:26;97024.94;;;26.63;60.02
16461;BME280;8341;42.048;24.650;2023-06-14T11:33:53;97027.81;;;26.55;59.29
16461;BME280;8341;42.048;24.650;2023-06-14T11:36:20;97027.25;;;26.47;59.82
16461;BME280;8341;42.048;24.650;2023-06-14T11:38:49;97025.00;;;26.00;61.09
16461;BME280;8341;42.048;24.650;2023-06-14T11:41:15;97019.31;;;25.81;63.82
16461;BME280;8341;42.048;24.650;2023-06-14T11:43:42;97014.09;;;25.68;60.83
16461;BME280;8341;42.048;24.650;2023-06-14T11:46:13;97007.53;;;26.09;62.66
16461;BME280;8341;42.048;24.650;2023-06-14T11:48:42;97004.41;;;26.32;62.21
16461;BME280;8341;42.048;24.650;2023-06-14T11:51:09;97002.69;;;26.65;62.93
16461;BME280;8341;42.048;24.650;2023-06-14T11:53:36;96997.88;;;26.85;59.18
16461;BME280;8341;42.048;24.650;2023-06-14T11:56:05;97001.72;;;26.99;58.62
16461;BME280;8341;42.048;24.650;2023-06-14T11:58:32;96999.94;;;27.13;59.74
16461;BME280;8341;42.048;24.650;2023-06-14T12:00:59;96999.75;;;27.30;57.86
16461;BME280;8341;42.048;24.650;2023-06-14T12:03:27;97001.25;;;27.41;54.83
16461;BME280;8341;42.048;24.650;2023-06-14T12:06:07;96989.13;;;27.57;55.53
16461;BME280;8341;42.048;24.650;2023-06-14T12:08:34;96992.22;;;27.61;53.45
16461;BME280;8341;42.048;24.650;2023-06-14T12:11:05;96965.69;;;27.62;53.38
16461;BME280;8341;42.048;24.650;2023-06-14T12:13:34;96987.31;;;27.71;52.40
16461;BME280;8341;42.048;24.650;2023-06-14T12:16:01;96987.69;;;27.18;53.32
16461;BME280;8341;42.048;24.650;2023-06-14T12:18:33;96977.97;;;27.09;54.23
16461;BME280;8341;42.048;24.650;2023-06-14T12:21:01;96982.41;;;27.03;55.19
16461;BME280;8341;42.048;24.650;2023-06-14T12:23:42;96971.31;;;26.66;60.14
16461;BME280;8341;42.048;24.650;2023-06-14T12:26:12;96966.63;;;26.59;62.40
16461;BME280;8341;42.048;24.650;2023-06-14T12:28:40;96968.66;;;26.49;64.76
16461;BME280;8341;42.048;24.650;2023-06-14T12:31:06;96957.47;;;26.49;64.10
16461;BME280;8341;42.048;24.650;2023-06-14T12:33:34;96967.63;;;26.54;63.84
16461;BME280;8341;42.048;24.650;2023-06-14T12:36:03;96966.63;;;26.79;63.95
16461;BME280;8341;42.048;24.650;2023-06-14T12:38:30;96966.47;;;26.67;62.21
16461;BME280;8341;42.048;24.650;2023-06-14T12:40:57;96947.31;;;26.63;63.38
16461;BME280;8341;42.048;24.650;2023-06-14T12:43:26;96945.13;;;26.52;61.09
16461;BME280;8341;42.048;24.650;2023-06-14T12:45:53;96944.84;;;26.77;62.57
16461;BME280;8341;42.048;24.650;2023-06-14T12:48:20;96940.16;;;26.99;63.14
16461;BME280;8341;42.048;24.650;2023-06-14T12:50:47;96939.69;;;26.93;63.14
16461;BME280;8341;42.048;24.650;2023-06-14T12:53:14;96943.09;;;26.82;61.30
16461;BME280;8341;42.048;24.650;2023-06-14T12:55:41;96938.66;;;26.79;62.08
16461;BME280;8341;42.048;24.650;2023-06-14T12:58:07;96937.75;;;26.66;61.93
16461;BME280;8341;42.048;24.650;2023-06-14T13:00:36;96932.91;;;26.57;63.89
16461;BME280;8341;42.048;24.650;2023-06-14T13:03:03;96939.34;;;26.41;63.72